sensor_id;sensor_type;location;lat;lon;timestamp;P1;durP1;ratioP1;P2;durP2;ratioP2
79452;SDS011;68899;52.116;5.404;2024-02-04T00:02:13;8.32;;;3.83;;
79452;SDS011;68899;52.116;5.404;2024-02-04T00:04:40;5.05;;;2.78;;
79452;SDS011;68899;52.116;5.404;2024-02-04T00:07:07;5.30;;;2.63;;
79452;SDS011;68899;52.116;5.404;2024-02-04T00:09:34;7.60;;;2.65;;
79452;SDS011;68899;52.116;5.404;2024-02-04T00:12:02;4.70;;;2.50;;
79452;SDS011;68899;52.116;5.404;2024-02-04T00:14:30;5.05;;;1.85;;
79452;SDS011;68899;52.116;5.404;2024-02-04T00:16:57;4.68;;;2.13;;
79452;SDS011;68899;52.116;5.404;2024-02-04T00:19:23;4.03;;;1.60;;
79452;SDS011;68899;52.116;5.404;2024-02-04T00:21:50;4.38;;;1.45;;
79452;SDS011;68899;52.116;5.404;2024-02-04T00:24:17;4.90;;;1.83;;
79452;SDS011;68899;52.116;5.404;2024-02-04T00:26:45;8.55;;;3.90;;
79452;SDS011;68899;52.116;5.404;2024-02-04T00:29:11;6.95;;;3.08;;
79452;SDS011;68899;52.116;5.404;2024-02-04T00:31:38;6.15;;;3.40;;
79452;SDS011;68899;52.116;5.404;2024-02-04T00:34:04;5.80;;;3.03;;
79452;SDS011;68899;52.116;5.404;2024-02-04T00:36:31;6.05;;;3.00;;
79452;SDS011;68899;52.116;5.404;2024-02-04T00:38:58;6.40;;;2.70;;
79452;SDS011;68899;52.116;5.404;2024-02-04T00:41:24;6.25;;;2.95;;
79452;SDS011;68899;52.116;5.404;2024-02-04T00:43:51;6.18;;;2.60;;
79452;SDS011;68899;52.116;5.404;2024-02-04T00:46:18;5.15;;;2.50;;
79452;SDS011;68899;52.116;5.404;2024-02-04T00:48:45;8.75;;;3.55;;
79452;SDS011;68899;52.116;5.404;2024-02-04T00:51:12;6.93;;;3.22;;
79452;SDS011;68899;52.116;5.404;2024-02-04T00:53:40;12.82;;;3.78;;
79452;SDS011;68899;52.116;5.404;2024-02-04T00:56:06;10.05;;;4.43;;
79452;SDS011;68899;52.116;5.404;2024-02-04T00:58:33;12.90;;;5.10;;
79452;SDS011;68899;52.116;5.404;2024-02-04T01:00:59;17.13;;;5.40;;
79452;SDS011;68899;52.116;5.404;2024-02-04T01:03:26;11.63;;;6.60;;
79452;SDS011;68899;52.116;5.404;2024-02-04T01:05:53;15.45;;;5.53;;
79452;SDS011;68899;52.116;5.404;2024-02-04T01:08:21;15.07;;;4.75;;
79452;SDS011;68899;52.116;5.404;2024-02-04T01:10:48;12.98;;;4.85;;
79452;SDS011;68899;52.116;5.404;2024-02-04T01:13:17;14.60;;;6.05;;
79452;SDS011;68899;52.116;5.404;2024-02-04T01:15:44;13.00;;;4.82;;
79452;SDS011;68899;52.116;5.404;2024-02-04T01:18:10;16.20;;;5.03;;
79452;SDS011;68899;52.116;5.404;2024-02-04T01:20:36;10.20;;;5.47;;
79452;SDS011;68899;52.116;5.404;2024-02-04T01:23:03;14.35;;;4.72;;
79452;SDS011;68899;52.116;5.404;2024-02-04T01:25:29;12.02;;;5.28;;
79452;SDS011;68899;52.116;5.404;2024-02-04T01:27:56;16.90;;;5.70;;
79452;SDS011;68899;52.116;5.404;2024-02-04T01:30:23;13.82;;;4.90;;
79452;SDS011;68899;52.116;5.404;2024-02-04T01:32:50;11.95;;;4.70;;
79452;SDS011;68899;52.116;5.404;2024-02-04T01:35:17;10.40;;;4.47;;
79452;SDS011;68899;52.116;5.404;2024-02-04T01:37:43;12.82;;;4.35;;
79452;SDS011;68899;52.116;5.404;2024-02-04T01:40:10;8.10;;;4.22;;
79452;SDS011;68899;52.116;5.404;2024-02-04T01:42:37;8.70;;;3.97;;
79452;SDS011;68899;52.116;5.404;2024-02-04T01:45:04;9.10;;;3.85;;
79452;SDS011;68899;52.116;5.404;2024-02-04T01:47:31;8.90;;;3.72;;
79452;SDS011;68899;52.116;5.404;2024-02-04T01:49:58;10.50;;;4.18;;
79452;SDS011;68899;52.116;5.404;2024-02-04T01:52:25;11.15;;;4.85;;
79452;SDS011;68899;52.116;5.404;2024-02-04T01:54:52;12.52;;;4.55;;
79452;SDS011;68899;52.116;5.404;2024-02-04T01:57:19;17.58;;;5.38;;
79452;SDS011;68899;52.116;5.404;2024-02-04T01:59:46;12.38;;;4.53;;
79452;SDS011;68899;52.116;5.404;2024-02-04T02:02:14;15.43;;;5.15;;
79452;SDS011;68899;52.116;5.404;2024-02-04T02:04:41;12.40;;;5.53;;
79452;SDS011;68899;52.116;5.404;2024-02-04T02:07:09;11.65;;;5.05;;
79452;SDS011;68899;52.116;5.404;2024-02-04T02:09:36;11.00;;;4.63;;
79452;SDS011;68899;52.116;5.404;2024-02-04T02:14:40;11.18;;;5.05;;
79452;SDS011;68899;52.116;5.404;2024-02-04T02:17:12;13.68;;;4.93;;
79452;SDS011;68899;52.116;5.404;2024-02-04T02:19:50;14.48;;;5.43;;
79452;SDS011;68899;52.116;5.404;2024-02-04T02:25:19;9.52;;;3.70;;
79452;SDS011;68899;52.116;5.404;2024-02-04T02:27:48;12.00;;;4.47;;
79452;SDS011;68899;52.116;5.404;2024-02-04T02:30:16;12.68;;;4.30;;
79452;SDS011;68899;52.116;5.404;2024-02-04T02:32:44;14.77;;;4.50;;
79452;SDS011;68899;52.116;5.404;2024-02-04T02:35:14;10.88;;;3.95;;
79452;SDS011;68899;52.116;5.404;2024-02-04T02:42:58;9.18;;;4.20;;
79452;SDS011;68899;52.116;5.404;2024-02-04T02:45:28;10.45;;;4.57;;
79452;SDS011;68899;52.116;5.404;2024-02-04T02:47:56;10.05;;;3.58;;
79452;SDS011;68899;52.116;5.404;2024-02-04T02:50:23;12.27;;;4.60;;
79452;SDS011;68899;52.116;5.404;2024-02-04T02:52:50;12.50;;;4.38;;
79452;SDS011;68899;52.116;5.404;2024-02-04T02:55:16;12.88;;;4.32;;
79452;SDS011;68899;52.116;5.404;2024-02-04T02:57:43;14.02;;;3.92;;
79452;SDS011;68899;52.116;5.404;2024-02-04T03:00:10;11.05;;;4.40;;
79452;SDS011;68899;52.116;5.404;2024-02-04T03:02:37;14.25;;;4.35;;
79452;SDS011;68899;52.116;5.404;2024-02-04T03:05:03;14.73;;;5.05;;
79452;SDS011;68899;52.116;5.404;2024-02-04T03:07:30;11.80;;;4.65;;
79452;SDS011;68899;52.116;5.404;2024-02-04T03:09:57;13.23;;;5.00;;
79452;SDS011;68899;52.116;5.404;2024-02-04T03:12:23;14.50;;;4.95;;
79452;SDS011;68899;52.116;5.404;2024-02-04T03:14:50;14.15;;;4.85;;
79452;SDS011;68899;52.116;5.404;2024-02-04T03:17:16;13.98;;;5.28;;
79452;SDS011;68899;52.116;5.404;2024-02-04T03:19:47;11.25;;;5.47;;
79452;SDS011;68899;52.116;5.404;2024-02-04T03:22:15;17.13;;;5.43;;
79452;SDS011;68899;52.116;5.404;2024-02-04T03:24:41;10.25;;;5.15;;
79452;SDS011;68899;52.116;5.404;2024-02-04T03:27:08;13.18;;;4.90;;
79452;SDS011;68899;52.116;5.404;2024-02-04T03:29:35;10.23;;;4.50;;
79452;SDS011;68899;52.116;5.404;2024-02-04T03:32:02;13.73;;;4.80;;
79452;SDS011;68899;52.116;5.404;2024-02-04T03:34:29;9.57;;;3.42;;
79452;SDS011;68899;52.116;5.404;2024-02-04T03:36:55;8.35;;;3.83;;
79452;SDS011;68899;52.116;5.404;2024-02-04T03:39:22;11.52;;;4.22;;
79452;SDS011;68899;52.116;5.404;2024-02-04T03:41:48;8.38;;;3.45;;
79452;SDS011;68899;52.116;5.404;2024-02-04T03:44:15;7.68;;;3.00;;
79452;SDS011;68899;52.116;5.404;2024-02-04T03:46:41;6.75;;;2.55;;
79452;SDS011;68899;52.116;5.404;2024-02-04T03:49:08;9.45;;;2.22;;
79452;SDS011;68899;52.116;5.404;2024-02-04T03:51:34;7.68;;;2.20;;
79452;SDS011;68899;52.116;5.404;2024-02-04T03:54:02;7.45;;;2.03;;
79452;SDS011;68899;52.116;5.404;2024-02-04T03:56:28;5.85;;;1.88;;
79452;SDS011;68899;52.116;5.404;2024-02-04T03:58:54;10.65;;;2.28;;
79452;SDS011;68899;52.116;5.404;2024-02-04T04:01:21;8.55;;;1.63;;
79452;SDS011;68899;52.116;5.404;2024-02-04T04:03:47;5.13;;;2.10;;
79452;SDS011;68899;52.116;5.404;2024-02-04T04:06:14;8.77;;;1.85;;
79452;SDS011;68899;52.116;5.404;2024-02-04T04:08:41;5.82;;;1.80;;
79452;SDS011;68899;52.116;5.404;2024-02-04T04:11:08;6.65;;;2.58;;
79452;SDS011;68899;52.116;5.404;2024-02-04T04:13:36;7.70;;;1.95;;
79452;SDS011;68899;52.116;5.404;2024-02-04T04:16:03;4.05;;;1.67;;
79452;SDS011;68899;52.116;5.404;2024-02-04T04:18:31;5.35;;;1.55;;
79452;SDS011;68899;52.116;5.404;2024-02-04T04:20:58;6.45;;;1.88;;
79452;SDS011;68899;52.116;5.404;2024-02-04T04:23:24;7.07;;;2.30;;
79452;SDS011;68899;52.116;5.404;2024-02-04T04:25:51;8.48;;;2.45;;
79452;SDS011;68899;52.116;5.404;2024-02-04T04:28:17;8.75;;;2.22;;
79452;SDS011;68899;52.116;5.404;2024-02-04T04:30:44;6.88;;;2.97;;
79452;SDS011;68899;52.116;5.404;2024-02-04T04:33:10;10.77;;;2.75;;
79452;SDS011;68899;52.116;5.404;2024-02-04T04:35:38;5.55;;;2.63;;
79452;SDS011;68899;52.116;5.404;2024-02-04T04:38:05;8.43;;;2.70;;
79452;SDS011;68899;52.116;5.404;2024-02-04T04:40:31;7.65;;;3.25;;
79452;SDS011;68899;52.116;5.404;2024-02-04T04:42:58;11.48;;;2.80;;
79452;SDS011;68899;52.116;5.404;2024-02-04T04:45:24;8.48;;;3.15;;
79452;SDS011;68899;52.116;5.404;2024-02-04T04:47:51;7.95;;;3.00;;
79452;SDS011;68899;52.116;5.404;2024-02-04T04:50:18;10.13;;;3.67;;
79452;SDS011;68899;52.116;5.404;2024-02-04T04:52:44;7.20;;;2.38;;
79452;SDS011;68899;52.116;5.404;2024-02-04T04:55:11;6.10;;;2.33;;
79452;SDS011;68899;52.116;5.404;2024-02-04T04:57:38;7.38;;;2.25;;
79452;SDS011;68899;52.116;5.404;2024-02-04T05:00:05;7.45;;;2.42;;
79452;SDS011;68899;52.116;5.404;2024-02-04T05:02:36;10.80;;;2.30;;
79452;SDS011;68899;52.116;5.404;2024-02-04T05:05:03;7.40;;;2.45;;
79452;SDS011;68899;52.116;5.404;2024-02-04T05:07:30;8.45;;;2.20;;
79452;SDS011;68899;52.116;5.404;2024-02-04T05:09:57;4.90;;;2.10;;
79452;SDS011;68899;52.116;5.404;2024-02-04T05:12:23;7.03;;;2.13;;
79452;SDS011;68899;52.116;5.404;2024-02-04T05:14:50;7.80;;;2.08;;
79452;SDS011;68899;52.116;5.404;2024-02-04T05:17:16;7.97;;;2.28;;
79452;SDS011;68899;52.116;5.404;2024-02-04T05:19:43;9.00;;;2.15;;
79452;SDS011;68899;52.116;5.404;2024-02-04T05:22:10;7.05;;;2.20;;
79452;SDS011;68899;52.116;5.404;2024-02-04T05:24:36;6.80;;;2.38;;
79452;SDS011;68899;52.116;5.404;2024-02-04T05:27:03;7.20;;;2.20;;
79452;SDS011;68899;52.116;5.404;2024-02-04T05:29:30;10.23;;;2.55;;
79452;SDS011;68899;52.116;5.404;2024-02-04T05:31:58;9.68;;;3.05;;
79452;SDS011;68899;52.116;5.404;2024-02-04T05:34:24;9.70;;;2.88;;
79452;SDS011;68899;52.116;5.404;2024-02-04T05:36:51;9.73;;;2.88;;
79452;SDS011;68899;52.116;5.404;2024-02-04T05:39:18;8.65;;;2.40;;
79452;SDS011;68899;52.116;5.404;2024-02-04T05:41:45;8.13;;;2.38;;
79452;SDS011;68899;52.116;5.404;2024-02-04T05:44:11;11.52;;;2.80;;
79452;SDS011;68899;52.116;5.404;2024-02-04T05:46:38;9.07;;;2.58;;
79452;SDS011;68899;52.116;5.404;2024-02-04T05:49:05;7.60;;;2.70;;
79452;SDS011;68899;52.116;5.404;2024-02-04T05:51:32;10.35;;;2.70;;
79452;SDS011;68899;52.116;5.404;2024-02-04T05:54:03;8.68;;;3.03;;
79452;SDS011;68899;52.116;5.404;2024-02-04T05:56:29;9.15;;;2.20;;
79452;SDS011;68899;52.116;5.404;2024-02-04T05:58:56;6.00;;;2.05;;
79452;SDS011;68899;52.116;5.404;2024-02-04T06:01:23;6.70;;;2.33;;
79452;SDS011;68899;52.116;5.404;2024-02-04T06:03:50;6.40;;;2.15;;
79452;SDS011;68899;52.116;5.404;2024-02-04T06:06:17;6.82;;;1.88;;
79452;SDS011;68899;52.116;5.404;2024-02-04T06:08:46;6.25;;;2.08;;
79452;SDS011;68899;52.116;5.404;2024-02-04T06:11:13;7.53;;;2.47;;
79452;SDS011;68899;52.116;5.404;2024-02-04T06:13:40;7.30;;;2.60;;
79452;SDS011;68899;52.116;5.404;2024-02-04T06:16:08;6.57;;;3.03;;
79452;SDS011;68899;52.116;5.404;2024-02-04T06:18:36;7.38;;;3.17;;
79452;SDS011;68899;52.116;5.404;2024-02-04T06:21:05;7.30;;;2.88;;
79452;SDS011;68899;52.116;5.404;2024-02-04T06:23:32;7.25;;;4.05;;
79452;SDS011;68899;52.116;5.404;2024-02-04T06:25:59;9.80;;;3.83;;
79452;SDS011;68899;52.116;5.404;2024-02-04T06:28:28;9.52;;;3.55;;
79452;SDS011;68899;52.116;5.404;2024-02-04T06:30:55;8.50;;;3.25;;
79452;SDS011;68899;52.116;5.404;2024-02-04T06:33:22;6.63;;;3.10;;
79452;SDS011;68899;52.116;5.404;2024-02-04T06:35:50;12.25;;;4.70;;
79452;SDS011;68899;52.116;5.404;2024-02-04T06:38:16;11.30;;;5.35;;
79452;SDS011;68899;52.116;5.404;2024-02-04T06:40:43;10.98;;;4.80;;
79452;SDS011;68899;52.116;5.404;2024-02-04T06:43:09;11.57;;;5.03;;
79452;SDS011;68899;52.116;5.404;2024-02-04T06:45:36;14.52;;;6.03;;
79452;SDS011;68899;52.116;5.404;2024-02-04T06:48:03;12.20;;;5.40;;
79452;SDS011;68899;52.116;5.404;2024-02-04T06:50:29;15.75;;;6.30;;
79452;SDS011;68899;52.116;5.404;2024-02-04T06:52:56;13.23;;;6.10;;
79452;SDS011;68899;52.116;5.404;2024-02-04T06:55:23;13.52;;;6.68;;
79452;SDS011;68899;52.116;5.404;2024-02-04T06:57:50;12.57;;;6.20;;
79452;SDS011;68899;52.116;5.404;2024-02-04T07:00:16;15.10;;;5.88;;
79452;SDS011;68899;52.116;5.404;2024-02-04T07:02:43;13.95;;;6.22;;
79452;SDS011;68899;52.116;5.404;2024-02-04T07:05:09;14.75;;;5.68;;
79452;SDS011;68899;52.116;5.404;2024-02-04T07:07:37;13.00;;;6.63;;
79452;SDS011;68899;52.116;5.404;2024-02-04T07:10:03;9.90;;;6.80;;
79452;SDS011;68899;52.116;5.404;2024-02-04T07:12:31;14.50;;;6.60;;
79452;SDS011;68899;52.116;5.404;2024-02-04T07:14:58;13.73;;;5.90;;
79452;SDS011;68899;52.116;5.404;2024-02-04T07:17:25;13.95;;;5.90;;
79452;SDS011;68899;52.116;5.404;2024-02-04T07:19:51;14.20;;;5.70;;
79452;SDS011;68899;52.116;5.404;2024-02-04T07:22:18;13.40;;;5.30;;
79452;SDS011;68899;52.116;5.404;2024-02-04T07:24:44;12.90;;;5.50;;
79452;SDS011;68899;52.116;5.404;2024-02-04T07:27:11;10.95;;;5.53;;
79452;SDS011;68899;52.116;5.404;2024-02-04T07:29:37;11.32;;;7.00;;
79452;SDS011;68899;52.116;5.404;2024-02-04T07:32:04;10.40;;;5.55;;
79452;SDS011;68899;52.116;5.404;2024-02-04T07:34:31;11.13;;;5.55;;
79452;SDS011;68899;52.116;5.404;2024-02-04T07:36:58;10.25;;;4.85;;
79452;SDS011;68899;52.116;5.404;2024-02-04T07:39:25;10.63;;;4.72;;
79452;SDS011;68899;52.116;5.404;2024-02-04T07:41:51;11.02;;;5.45;;
79452;SDS011;68899;52.116;5.404;2024-02-04T07:44:20;9.02;;;4.38;;
79452;SDS011;68899;52.116;5.404;2024-02-04T07:46:46;11.10;;;4.50;;
79452;SDS011;68899;52.116;5.404;2024-02-04T07:49:13;12.82;;;4.43;;
79452;SDS011;68899;52.116;5.404;2024-02-04T07:51:39;8.25;;;3.60;;
79452;SDS011;68899;52.116;5.404;2024-02-04T07:54:06;8.68;;;3.38;;
79452;SDS011;68899;52.116;5.404;2024-02-04T07:56:32;6.22;;;4.28;;
79452;SDS011;68899;52.116;5.404;2024-02-04T07:58:59;9.60;;;3.15;;
79452;SDS011;68899;52.116;5.404;2024-02-04T08:01:25;7.28;;;2.83;;
79452;SDS011;68899;52.116;5.404;2024-02-04T08:03:52;6.32;;;2.20;;
79452;SDS011;68899;52.116;5.404;2024-02-04T08:06:19;4.63;;;2.55;;
79452;SDS011;68899;52.116;5.404;2024-02-04T08:08:45;6.88;;;2.13;;
79452;SDS011;68899;52.116;5.404;2024-02-04T08:11:17;6.05;;;2.08;;
79452;SDS011;68899;52.116;5.404;2024-02-04T08:13:44;6.18;;;2.35;;
79452;SDS011;68899;52.116;5.404;2024-02-04T08:16:11;5.90;;;1.92;;
79452;SDS011;68899;52.116;5.404;2024-02-04T08:18:38;3.65;;;1.80;;
79452;SDS011;68899;52.116;5.404;2024-02-04T08:21:04;5.85;;;1.98;;
79452;SDS011;68899;52.116;5.404;2024-02-04T08:23:31;7.85;;;2.97;;
79452;SDS011;68899;52.116;5.404;2024-02-04T08:25:58;6.60;;;2.10;;
79452;SDS011;68899;52.116;5.404;2024-02-04T08:28:25;5.40;;;2.10;;
79452;SDS011;68899;52.116;5.404;2024-02-04T08:30:52;5.97;;;2.22;;
79452;SDS011;68899;52.116;5.404;2024-02-04T08:33:18;5.20;;;2.40;;
79452;SDS011;68899;52.116;5.404;2024-02-04T08:35:45;6.40;;;3.03;;
79452;SDS011;68899;52.116;5.404;2024-02-04T08:38:12;5.55;;;1.80;;
79452;SDS011;68899;52.116;5.404;2024-02-04T08:40:38;8.32;;;2.08;;
79452;SDS011;68899;52.116;5.404;2024-02-04T08:43:04;5.22;;;1.60;;
79452;SDS011;68899;52.116;5.404;2024-02-04T08:45:31;5.72;;;1.27;;
79452;SDS011;68899;52.116;5.404;2024-02-04T08:47:58;3.75;;;1.58;;
79452;SDS011;68899;52.116;5.404;2024-02-04T08:50:25;5.60;;;2.22;;
79452;SDS011;68899;52.116;5.404;2024-02-04T08:52:51;3.67;;;1.67;;
79452;SDS011;68899;52.116;5.404;2024-02-04T08:55:18;7.55;;;2.88;;
79452;SDS011;68899;52.116;5.404;2024-02-04T08:57:45;4.00;;;2.33;;
79452;SDS011;68899;52.116;5.404;2024-02-04T09:00:11;6.88;;;2.95;;
79452;SDS011;68899;52.116;5.404;2024-02-04T09:02:39;8.35;;;2.13;;
79452;SDS011;68899;52.116;5.404;2024-02-04T09:05:06;7.28;;;3.10;;
79452;SDS011;68899;52.116;5.404;2024-02-04T09:07:33;8.65;;;3.13;;
79452;SDS011;68899;52.116;5.404;2024-02-04T09:10:00;8.35;;;3.85;;
79452;SDS011;68899;52.116;5.404;2024-02-04T09:12:26;8.85;;;4.00;;
79452;SDS011;68899;52.116;5.404;2024-02-04T09:14:53;7.85;;;4.55;;
79452;SDS011;68899;52.116;5.404;2024-02-04T09:17:20;8.38;;;4.68;;
79452;SDS011;68899;52.116;5.404;2024-02-04T09:19:48;7.38;;;4.45;;
79452;SDS011;68899;52.116;5.404;2024-02-04T09:22:15;9.00;;;3.20;;
79452;SDS011;68899;52.116;5.404;2024-02-04T09:24:43;5.75;;;3.05;;
79452;SDS011;68899;52.116;5.404;2024-02-04T09:27:09;4.95;;;2.70;;
79452;SDS011;68899;52.116;5.404;2024-02-04T09:29:36;9.05;;;3.50;;
79452;SDS011;68899;52.116;5.404;2024-02-04T09:32:03;5.15;;;3.15;;
79452;SDS011;68899;52.116;5.404;2024-02-04T09:34:30;7.90;;;2.90;;
79452;SDS011;68899;52.116;5.404;2024-02-04T09:36:57;7.03;;;2.65;;
79452;SDS011;68899;52.116;5.404;2024-02-04T09:39:24;7.72;;;2.70;;
79452;SDS011;68899;52.116;5.404;2024-02-04T09:41:51;7.22;;;2.00;;
79452;SDS011;68899;52.116;5.404;2024-02-04T09:44:17;5.30;;;2.05;;
79452;SDS011;68899;52.116;5.404;2024-02-04T09:46:45;8.45;;;2.08;;
79452;SDS011;68899;52.116;5.404;2024-02-04T09:49:11;6.05;;;1.60;;
79452;SDS011;68899;52.116;5.404;2024-02-04T09:51:40;5.60;;;2.20;;
79452;SDS011;68899;52.116;5.404;2024-02-04T09:54:09;4.80;;;1.50;;
79452;SDS011;68899;52.116;5.404;2024-02-04T09:56:37;6.82;;;1.33;;
79452;SDS011;68899;52.116;5.404;2024-02-04T09:59:05;3.78;;;1.38;;
79452;SDS011;68899;52.116;5.404;2024-02-04T10:01:31;5.32;;;1.42;;
79452;SDS011;68899;52.116;5.404;2024-02-04T10:03:58;5.53;;;1.42;;
79452;SDS011;68899;52.116;5.404;2024-02-04T10:06:25;5.80;;;1.20;;
79452;SDS011;68899;52.116;5.404;2024-02-04T10:08:53;4.85;;;1.20;;
79452;SDS011;68899;52.116;5.404;2024-02-04T10:11:19;5.57;;;1.55;;
79452;SDS011;68899;52.116;5.404;2024-02-04T10:13:47;5.35;;;1.38;;
79452;SDS011;68899;52.116;5.404;2024-02-04T10:16:15;4.45;;;1.23;;
79452;SDS011;68899;52.116;5.404;2024-02-04T10:18:45;4.22;;;1.17;;
79452;SDS011;68899;52.116;5.404;2024-02-04T10:21:17;4.80;;;1.20;;
79452;SDS011;68899;52.116;5.404;2024-02-04T10:23:46;5.63;;;2.15;;
79452;SDS011;68899;52.116;5.404;2024-02-04T10:26:13;3.95;;;1.13;;
79452;SDS011;68899;52.116;5.404;2024-02-04T10:28:40;5.13;;;0.95;;
79452;SDS011;68899;52.116;5.404;2024-02-04T10:31:10;4.90;;;1.70;;
79452;SDS011;68899;52.116;5.404;2024-02-04T10:33:37;4.82;;;0.82;;
79452;SDS011;68899;52.116;5.404;2024-02-04T10:36:04;1.85;;;0.63;;
79452;SDS011;68899;52.116;5.404;2024-02-04T10:38:32;2.38;;;0.60;;
79452;SDS011;68899;52.116;5.404;2024-02-04T10:40:59;2.20;;;0.60;;
79452;SDS011;68899;52.116;5.404;2024-02-04T10:43:31;1.70;;;0.52;;
79452;SDS011;68899;52.116;5.404;2024-02-04T10:46:06;2.38;;;0.50;;
79452;SDS011;68899;52.116;5.404;2024-02-04T10:48:37;1.38;;;0.30;;
79452;SDS011;68899;52.116;5.404;2024-02-04T10:51:14;3.72;;;0.43;;
79452;SDS011;68899;52.116;5.404;2024-02-04T10:53:42;2.30;;;0.45;;
79452;SDS011;68899;52.116;5.404;2024-02-04T10:56:14;3.92;;;0.73;;
79452;SDS011;68899;52.116;5.404;2024-02-04T10:58:46;3.50;;;0.47;;
79452;SDS011;68899;52.116;5.404;2024-02-04T11:01:13;2.13;;;0.60;;
79452;SDS011;68899;52.116;5.404;2024-02-04T11:03:40;3.58;;;0.88;;
79452;SDS011;68899;52.116;5.404;2024-02-04T11:06:07;2.53;;;0.70;;
79452;SDS011;68899;52.116;5.404;2024-02-04T11:08:35;1.70;;;0.35;;
79452;SDS011;68899;52.116;5.404;2024-02-04T11:11:01;2.67;;;0.30;;
79452;SDS011;68899;52.116;5.404;2024-02-04T11:13:28;2.20;;;0.82;;
79452;SDS011;68899;52.116;5.404;2024-02-04T11:15:57;1.92;;;0.40;;
79452;SDS011;68899;52.116;5.404;2024-02-04T11:21:49;1.67;;;0.57;;
79452;SDS011;68899;52.116;5.404;2024-02-04T11:24:59;1.38;;;0.45;;
79452;SDS011;68899;52.116;5.404;2024-02-04T11:27:39;2.03;;;0.40;;
79452;SDS011;68899;52.116;5.404;2024-02-04T11:30:07;1.05;;;0.43;;
79452;SDS011;68899;52.116;5.404;2024-02-04T11:32:34;2.55;;;0.95;;
79452;SDS011;68899;52.116;5.404;2024-02-04T11:35:02;2.92;;;1.25;;
79452;SDS011;68899;52.116;5.404;2024-02-04T11:37:29;2.47;;;1.20;;
79452;SDS011;68899;52.116;5.404;2024-02-04T11:39:57;2.47;;;0.82;;
79452;SDS011;68899;52.116;5.404;2024-02-04T11:42:25;2.08;;;0.63;;
79452;SDS011;68899;52.116;5.404;2024-02-04T11:45:06;3.50;;;0.80;;
79452;SDS011;68899;52.116;5.404;2024-02-04T11:47:37;2.08;;;0.93;;
79452;SDS011;68899;52.116;5.404;2024-02-04T11:50:04;2.95;;;1.52;;
79452;SDS011;68899;52.116;5.404;2024-02-04T11:52:31;2.80;;;1.40;;
79452;SDS011;68899;52.116;5.404;2024-02-04T11:54:59;4.88;;;1.55;;
79452;SDS011;68899;52.116;5.404;2024-02-04T11:57:25;4.78;;;1.55;;
79452;SDS011;68899;52.116;5.404;2024-02-04T11:59:54;4.50;;;2.78;;
79452;SDS011;68899;52.116;5.404;2024-02-04T12:02:21;5.65;;;1.95;;
79452;SDS011;68899;52.116;5.404;2024-02-04T12:04:47;5.95;;;2.22;;
79452;SDS011;68899;52.116;5.404;2024-02-04T12:07:15;7.10;;;2.63;;
79452;SDS011;68899;52.116;5.404;2024-02-04T12:09:42;8.10;;;2.10;;
79452;SDS011;68899;52.116;5.404;2024-02-04T12:12:09;5.80;;;2.22;;
79452;SDS011;68899;52.116;5.404;2024-02-04T12:14:35;6.50;;;2.55;;
79452;SDS011;68899;52.116;5.404;2024-02-04T12:17:07;6.22;;;2.28;;
79452;SDS011;68899;52.116;5.404;2024-02-04T12:19:37;7.93;;;2.03;;
79452;SDS011;68899;52.116;5.404;2024-02-04T12:22:09;3.92;;;1.58;;
79452;SDS011;68899;52.116;5.404;2024-02-04T12:24:36;5.22;;;1.63;;
79452;SDS011;68899;52.116;5.404;2024-02-04T12:27:06;5.15;;;1.30;;
79452;SDS011;68899;52.116;5.404;2024-02-04T12:29:33;6.85;;;1.60;;
79452;SDS011;68899;52.116;5.404;2024-02-04T12:32:00;5.47;;;1.50;;
79452;SDS011;68899;52.116;5.404;2024-02-04T12:34:29;8.00;;;1.30;;
79452;SDS011;68899;52.116;5.404;2024-02-04T12:36:59;4.40;;;1.60;;
79452;SDS011;68899;52.116;5.404;2024-02-04T12:39:27;7.13;;;1.27;;
79452;SDS011;68899;52.116;5.404;2024-02-04T12:41:55;4.95;;;1.55;;
79452;SDS011;68899;52.116;5.404;2024-02-04T12:44:22;6.47;;;1.30;;
79452;SDS011;68899;52.116;5.404;2024-02-04T12:46:52;5.10;;;1.42;;
79452;SDS011;68899;52.116;5.404;2024-02-04T12:49:19;4.80;;;0.93;;
79452;SDS011;68899;52.116;5.404;2024-02-04T12:51:48;6.07;;;1.17;;
79452;SDS011;68899;52.116;5.404;2024-02-04T12:54:15;6.53;;;1.30;;
79452;SDS011;68899;52.116;5.404;2024-02-04T12:56:43;4.63;;;1.33;;
79452;SDS011;68899;52.116;5.404;2024-02-04T12:59:09;4.72;;;1.23;;
79452;SDS011;68899;52.116;5.404;2024-02-04T13:01:39;5.22;;;1.60;;
79452;SDS011;68899;52.116;5.404;2024-02-04T13:04:06;4.47;;;1.85;;
79452;SDS011;68899;52.116;5.404;2024-02-04T13:06:37;3.92;;;0.88;;
79452;SDS011;68899;52.116;5.404;2024-02-04T13:09:04;4.22;;;1.00;;
79452;SDS011;68899;52.116;5.404;2024-02-04T13:11:32;3.72;;;1.02;;
79452;SDS011;68899;52.116;5.404;2024-02-04T13:13:59;3.67;;;0.82;;
79452;SDS011;68899;52.116;5.404;2024-02-04T13:16:25;3.97;;;1.38;;
79452;SDS011;68899;52.116;5.404;2024-02-04T13:18:53;3.70;;;1.05;;
79452;SDS011;68899;52.116;5.404;2024-02-04T13:21:20;3.55;;;0.82;;
79452;SDS011;68899;52.116;5.404;2024-02-04T13:23:49;4.25;;;1.75;;
79452;SDS011;68899;52.116;5.404;2024-02-04T13:26:16;4.22;;;1.10;;
79452;SDS011;68899;52.116;5.404;2024-02-04T13:28:43;5.22;;;0.93;;
79452;SDS011;68899;52.116;5.404;2024-02-04T13:31:10;5.25;;;1.20;;
79452;SDS011;68899;52.116;5.404;2024-02-04T13:33:40;5.57;;;1.92;;
79452;SDS011;68899;52.116;5.404;2024-02-04T13:36:07;4.72;;;0.95;;
79452;SDS011;68899;52.116;5.404;2024-02-04T13:38:35;4.30;;;1.52;;
79452;SDS011;68899;52.116;5.404;2024-02-04T13:41:02;5.55;;;1.23;;
79452;SDS011;68899;52.116;5.404;2024-02-04T13:43:32;4.30;;;1.30;;
79452;SDS011;68899;52.116;5.404;2024-02-04T13:45:59;5.60;;;1.25;;
79452;SDS011;68899;52.116;5.404;2024-02-04T13:48:27;6.15;;;1.50;;
79452;SDS011;68899;52.116;5.404;2024-02-04T13:50:54;6.35;;;1.92;;
79452;SDS011;68899;52.116;5.404;2024-02-04T13:53:21;4.18;;;1.48;;
79452;SDS011;68899;52.116;5.404;2024-02-04T13:55:50;7.35;;;1.30;;
79452;SDS011;68899;52.116;5.404;2024-02-04T13:58:17;4.95;;;1.90;;
79452;SDS011;68899;52.116;5.404;2024-02-04T14:00:45;6.30;;;1.55;;
79452;SDS011;68899;52.116;5.404;2024-02-04T14:03:12;10.30;;;2.85;;
79452;SDS011;68899;52.116;5.404;2024-02-04T14:05:39;8.23;;;2.65;;
79452;SDS011;68899;52.116;5.404;2024-02-04T14:08:06;8.40;;;2.38;;
79452;SDS011;68899;52.116;5.404;2024-02-04T14:10:33;8.50;;;2.17;;
79452;SDS011;68899;52.116;5.404;2024-02-04T14:13:00;6.97;;;2.10;;
79452;SDS011;68899;52.116;5.404;2024-02-04T14:15:26;9.57;;;2.63;;
79452;SDS011;68899;52.116;5.404;2024-02-04T14:17:53;8.60;;;2.60;;
79452;SDS011;68899;52.116;5.404;2024-02-04T14:20:20;6.47;;;2.60;;
79452;SDS011;68899;52.116;5.404;2024-02-04T14:22:48;7.93;;;3.60;;
79452;SDS011;68899;52.116;5.404;2024-02-04T14:25:15;10.60;;;2.72;;
79452;SDS011;68899;52.116;5.404;2024-02-04T14:27:42;7.75;;;2.40;;
79452;SDS011;68899;52.116;5.404;2024-02-04T14:30:09;8.80;;;2.70;;
79452;SDS011;68899;52.116;5.404;2024-02-04T14:32:35;9.75;;;2.58;;
79452;SDS011;68899;52.116;5.404;2024-02-04T14:35:02;5.65;;;2.53;;
79452;SDS011;68899;52.116;5.404;2024-02-04T14:37:31;8.27;;;2.65;;
79452;SDS011;68899;52.116;5.404;2024-02-04T14:40:01;6.53;;;2.08;;
79452;SDS011;68899;52.116;5.404;2024-02-04T14:42:30;5.13;;;1.50;;
79452;SDS011;68899;52.116;5.404;2024-02-04T14:44:56;8.00;;;2.03;;
79452;SDS011;68899;52.116;5.404;2024-02-04T14:47:23;7.07;;;1.50;;
79452;SDS011;68899;52.116;5.404;2024-02-04T14:49:50;7.32;;;1.77;;
79452;SDS011;68899;52.116;5.404;2024-02-04T14:52:16;9.75;;;2.33;;
79452;SDS011;68899;52.116;5.404;2024-02-04T14:54:44;4.78;;;1.70;;
79452;SDS011;68899;52.116;5.404;2024-02-04T14:57:10;4.32;;;1.45;;
79452;SDS011;68899;52.116;5.404;2024-02-04T14:59:38;7.82;;;1.60;;